Time;durP1;ratioP1;P1;durP2;ratioP2;P2;SDS_P1;SDS_P2;PMS_P1;PMS_P2;Temp;Humidity;BMP_temperature;BMP_pressure;BME280_temperature;BME280_humidity;BME280_pressure;Samples;Min_cycle;Max_cycle;Signal;HPM_P1;HPM_P2
2023/08/19 00:01:04;;;;;;;5.55;1.70;;;25.30;99.90;;;;;;4971177;28;20149;-61
2023/08/19 00:03:35;;;;;;;4.03;1.40;;;25.30;99.90;;;;;;4969915;28;20077;-61
2023/08/19 00:06:06;;;;;;;;;;;25.40;99.90;;;;;;4971606;28;20498;-61
2023/08/19 00:08:32;;;;;;;2.25;1.48;;;25.30;99.90;;;;;;4970796;28;19925;-61
2023/08/19 00:10:58;;;;;;;2.25;1.27;;;25.30;99.90;;;;;;4955947;28;20062;-62
2023/08/19 00:13:23;;;;;;;8.30;1.80;;;25.30;99.90;;;;;;4968896;28;20077;-61
2023/08/19 00:15:49;;;;;;;3.25;1.73;;;25.30;99.90;;;;;;4971038;28;20506;-61
2023/08/19 00:18:16;;;;;;;4.07;1.80;;;25.30;99.90;;;;;;4970329;28;20471;-61
2023/08/19 00:20:42;;;;;;;3.70;1.75;;;25.30;99.90;;;;;;4970442;28;20038;-61
2023/08/19 00:23:08;;;;;;;4.70;2.47;;;25.00;99.90;;;;;;4969583;28;20093;-62
2023/08/19 00:25:34;;;;;;;6.07;2.20;;;24.80;99.90;;;;;;4970951;28;20054;-62
2023/08/19 00:28:00;;;;;;;8.00;3.20;;;24.60;99.90;;;;;;4970245;28;20049;-62
2023/08/19 00:30:26;;;;;;;5.45;2.80;;;24.60;99.90;;;;;;4970524;28;20105;-62
2023/08/19 00:32:51;;;;;;;6.70;3.58;;;24.50;99.90;;;;;;4967243;28;20073;-61
2023/08/19 00:35:17;;;;;;;6.78;2.90;;;24.40;99.90;;;;;;4959296;28;20039;-61
2023/08/19 00:37:43;;;;;;;6.80;3.10;;;24.30;99.90;;;;;;4968170;28;20038;-61
2023/08/19 00:40:16;;;;;;;4.32;2.30;;;24.20;99.90;;;;;;4970306;28;20054;-61
2023/08/19 00:42:43;;;;;;;5.28;2.38;;;24.20;99.90;;;;;;4955304;28;20114;-61
2023/08/19 00:45:10;;;;;;;6.30;2.70;;;24.30;99.90;;;;;;4960934;28;20034;-61
2023/08/19 00:47:37;;;;;;;6.10;1.98;;;24.10;99.90;;;;;;4950413;28;20073;-61
2023/08/19 00:50:10;;;;;;;2.92;1.77;;;24.20;99.90;;;;;;4960815;28;20042;-61
2023/08/19 00:52:38;;;;;;;3.50;1.98;;;24.20;99.90;;;;;;4949931;28;20141;-61
2023/08/19 00:55:05;;;;;;;3.75;1.88;;;24.30;99.90;;;;;;4961023;28;20125;-62
2023/08/19 00:57:34;;;;;;;2.92;1.55;;;24.40;99.90;;;;;;4956485;28;20398;-60
2023/08/19 01:00:00;;;;;;;5.88;1.52;;;24.50;99.90;;;;;;4960931;28;20034;-61
2023/08/19 01:02:27;;;;;;;5.57;1.65;;;24.60;99.90;;;;;;4961449;28;20414;-61
2023/08/19 01:04:53;;;;;;;4.22;1.52;;;24.60;99.90;;;;;;4934884;28;20086;-61
2023/08/19 01:07:49;;;;;;;4.40;2.28;;;24.60;99.90;;;;;;4962229;28;20101;-61
2023/08/19 01:10:24;;;;;;;4.25;1.52;;;24.60;99.90;;;;;;4970148;28;20511;-61
2023/08/19 01:13:14;;;;;;;3.60;1.85;;;24.60;99.90;;;;;;4973864;28;20102;-62
2023/08/19 01:15:59;;;;;;;4.95;2.13;;;24.50;99.90;;;;;;4953769;28;20043;-62
2023/08/19 01:18:25;;;;;;;3.67;1.75;;;24.50;99.90;;;;;;4947363;28;20067;-62
2023/08/19 01:20:54;;;;;;;1.65;1.30;;;24.40;99.90;;;;;;4965371;28;20077;-61
2023/08/19 01:23:36;;;;;;;3.67;1.60;;;24.40;99.90;;;;;;4949580;28;20042;-61
2023/08/19 01:26:02;;;;;;;3.90;2.17;;;24.30;99.90;;;;;;4955250;28;20034;-61
2023/08/19 01:28:28;;;;;;;2.85;1.40;;;24.20;99.90;;;;;;4968717;28;20034;-61
2023/08/19 01:30:53;;;;;;;2.63;1.42;;;24.20;99.90;;;;;;5009071;23;20050;-63
2023/08/19 01:33:21;;;;;;;3.40;1.70;;;24.20;99.90;;;;;;5008813;28;20100;-62
2023/08/19 01:36:15;;;;;;;7.57;1.77;;;24.30;99.90;;;;;;4990867;28;20040;-61
2023/08/19 01:39:02;;;;;;;3.75;2.20;;;24.30;99.90;;;;;;4988789;28;20065;-61
2023/08/19 01:41:29;;;;;;;6.65;2.33;;;24.40;99.90;;;;;;4974316;28;20121;-63
2023/08/19 01:44:01;;;;;;;3.15;1.30;;;24.50;99.90;;;;;;4958837;28;20037;-60
2023/08/19 01:46:27;;;;;;;3.78;1.90;;;24.30;99.90;;;;;;4966967;28;20038;-61
2023/08/19 01:48:53;;;;;;;3.67;1.70;;;24.40;99.90;;;;;;4974823;28;20030;-61
2023/08/19 01:51:19;;;;;;;2.65;1.73;;;24.40;99.90;;;;;;4965509;28;20036;-62
2023/08/19 01:53:45;;;;;;;4.28;2.42;;;24.50;99.90;;;;;;4988837;28;20035;-61
2023/08/19 01:56:12;;;;;;;3.53;1.50;;;24.40;99.90;;;;;;4988952;28;20137;-62
2023/08/19 01:58:37;;;;;;;3.28;1.23;;;24.30;99.90;;;;;;4988818;28;20113;-61
2023/08/19 02:01:04;;;;;;;3.03;1.65;;;24.40;99.90;;;;;;4988131;28;20041;-61
2023/08/19 02:03:29;;;;;;;4.35;1.70;;;24.50;99.90;;;;;;4989581;28;20045;-62
2023/08/19 02:05:55;;;;;;;3.33;1.70;;;24.50;99.90;;;;;;4990149;28;20101;-61
2023/08/19 02:08:21;;;;;;;5.40;1.70;;;24.40;99.90;;;;;;4990353;28;20122;-62
2023/08/19 02:10:47;;;;;;;4.85;1.92;;;24.20;99.90;;;;;;4990190;28;20042;-62
2023/08/19 02:13:12;;;;;;;3.15;1.60;;;24.20;99.90;;;;;;4990380;28;20069;-62
2023/08/19 02:15:38;;;;;;;9.27;2.20;;;24.00;99.90;;;;;;4989893;28;20034;-62
2023/08/19 02:18:04;;;;;;;5.18;1.70;;;24.10;99.90;;;;;;4990742;28;20062;-62
2023/08/19 02:20:30;;;;;;;6.22;2.00;;;24.20;99.90;;;;;;4989995;28;20190;-62
2023/08/19 02:22:59;;;;;;;2.88;1.60;;;24.20;99.90;;;;;;4989462;28;20117;-62
2023/08/19 02:25:24;;;;;;;4.28;2.00;;;24.00;99.90;;;;;;4989772;28;20034;-62
2023/08/19 02:27:50;;;;;;;6.63;1.92;;;24.10;99.90;;;;;;4989870;28;20383;-61
2023/08/19 02:30:16;;;;;;;3.85;2.28;;;24.20;99.90;;;;;;4989946;28;20042;-62
2023/08/19 02:32:42;;;;;;;3.30;1.83;;;24.30;99.90;;;;;;4979902;28;20063;-61
2023/08/19 02:35:09;;;;;;;4.70;1.70;;;24.20;99.90;;;;;;4990068;28;20077;-61
2023/08/19 02:37:35;;;;;;;2.97;2.00;;;24.30;99.90;;;;;;4983401;28;20470;-61
2023/08/19 02:40:00;;;;;;;4.18;1.80;;;24.30;99.90;;;;;;4994063;28;20030;-61
2023/08/19 02:42:26;;;;;;;3.22;1.98;;;24.40;99.90;;;;;;4984569;28;20034;-62
2023/08/19 02:44:52;;;;;;;4.35;2.30;;;24.30;99.90;;;;;;4993336;28;20026;-62
2023/08/19 02:47:18;;;;;;;7.35;2.40;;;24.20;99.90;;;;;;4985585;28;20038;-62
2023/08/19 02:49:43;;;;;;;3.42;1.92;;;24.10;99.90;;;;;;4992465;28;20390;-62
2023/08/19 02:52:09;;;;;;;6.57;2.35;;;24.00;99.90;;;;;;4992951;28;20134;-62
2023/08/19 02:54:35;;;;;;;5.43;1.80;;;24.00;99.90;;;;;;4992542;28;20034;-62
2023/08/19 02:57:01;;;;;;;2.92;1.65;;;23.90;99.90;;;;;;4993753;28;20041;-62
2023/08/19 02:59:27;;;;;;;8.55;2.40;;;23.90;99.90;;;;;;4993602;28;20045;-62
2023/08/19 03:01:53;;;;;;;5.00;2.83;;;23.70;99.90;;;;;;4993454;28;20450;-62
2023/08/19 03:04:18;;;;;;;4.95;2.08;;;23.70;99.90;;;;;;4986948;28;20026;-62
2023/08/19 03:06:44;;;;;;;4.18;2.08;;;23.70;99.90;;;;;;4993517;28;20049;-62
2023/08/19 03:09:10;;;;;;;10.13;2.63;;;23.60;99.90;;;;;;4992923;28;20042;-62
2023/08/19 03:11:36;;;;;;;5.63;2.28;;;23.60;99.90;;;;;;4990875;28;20034;-62
2023/08/19 03:14:02;;;;;;;4.35;2.45;;;23.70;99.90;;;;;;4977335;28;20035;-62
2023/08/19 03:16:28;;;;;;;6.88;3.08;;;23.70;99.90;;;;;;4992816;28;20037;-62
2023/08/19 03:18:54;;;;;;;5.40;3.15;;;23.80;99.90;;;;;;4992776;28;20470;-62
2023/08/19 03:21:20;;;;;;;6.07;2.30;;;23.80;99.90;;;;;;4992452;28;20065;-62
2023/08/19 03:23:45;;;;;;;9.88;2.38;;;23.80;99.90;;;;;;4991377;28;20508;-62
2023/08/19 03:26:11;;;;;;;2.33;1.58;;;23.90;99.90;;;;;;4992883;28;20545;-62
2023/08/19 03:28:37;;;;;;;3.53;1.73;;;23.90;99.90;;;;;;4991763;28;20026;-62
2023/08/19 03:31:10;;;;;;;2.47;1.70;;;23.90;99.90;;;;;;4992224;28;20034;-62
2023/08/19 03:33:38;;;;;;;3.80;1.60;;;23.90;99.90;;;;;;4992063;28;20046;-62
2023/08/19 03:36:04;;;;;;;6.43;2.15;;;24.00;99.90;;;;;;4991994;28;20042;-62
2023/08/19 03:38:30;;;;;;;5.55;2.72;;;23.90;99.90;;;;;;4991977;28;20045;-62
2023/08/19 03:40:56;;;;;;;4.88;2.10;;;24.00;99.90;;;;;;4993167;28;20026;-62
2023/08/19 03:43:21;;;;;;;3.05;1.80;;;23.90;99.90;;;;;;4991798;28;20049;-62
2023/08/19 03:45:47;;;;;;;3.30;1.92;;;24.00;99.90;;;;;;4969372;28;20104;-62
2023/08/19 03:48:13;;;;;;;5.57;2.40;;;24.00;99.90;;;;;;4991617;28;20108;-62
2023/08/19 03:50:39;;;;;;;4.85;1.92;;;23.70;99.90;;;;;;4991800;28;20037;-62
2023/08/19 03:53:05;;;;;;;2.90;1.63;;;23.70;99.90;;;;;;4982240;28;20761;-62
2023/08/19 03:55:32;;;;;;;4.35;1.80;;;23.60;99.90;;;;;;4969486;28;20510;-62
2023/08/19 03:57:58;;;;;;;5.20;2.40;;;23.50;99.90;;;;;;4992673;28;20038;-62
2023/08/19 04:00:24;;;;;;;3.53;2.00;;;23.10;99.90;;;;;;4991901;28;20038;-62
2023/08/19 04:02:50;;;;;;;5.05;2.13;;;23.10;99.90;;;;;;4990829;28;20034;-62
2023/08/19 04:05:16;;;;;;;4.75;2.00;;;23.20;99.90;;;;;;4967506;28;20034;-62
2023/08/19 04:07:42;;;;;;;4.53;1.95;;;23.30;99.90;;;;;;4992374;28;20034;-62
2023/08/19 04:10:09;;;;;;;3.83;2.30;;;23.30;99.90;;;;;;4992191;28;20037;-62
2023/08/19 04:12:35;;;;;;;4.55;2.25;;;23.40;99.90;;;;;;4977783;28;20066;-62
2023/08/19 04:15:01;;;;;;;5.90;2.40;;;23.40;99.90;;;;;;4973719;28;20034;-62
2023/08/19 04:17:27;;;;;;;4.03;2.47;;;23.40;99.90;;;;;;4992329;28;20030;-62
2023/08/19 04:19:53;;;;;;;13.10;3.10;;;23.40;99.90;;;;;;4991337;28;20749;-62
2023/08/19 04:22:19;;;;;;;4.30;1.83;;;23.40;99.90;;;;;;4991438;28;20577;-62
2023/08/19 04:24:52;;;;;;;6.00;2.30;;;23.40;99.90;;;;;;4991677;28;20040;-62
2023/08/19 04:27:18;;;;;;;5.47;1.92;;;23.30;99.90;;;;;;4992044;28;20390;-62
2023/08/19 04:29:44;;;;;;;4.05;1.90;;;23.30;99.90;;;;;;4983080;28;20394;-62
2023/08/19 04:32:10;;;;;;;4.03;2.25;;;23.30;99.90;;;;;;4980307;28;20464;-62
2023/08/19 04:34:36;;;;;;;4.28;2.17;;;23.20;99.90;;;;;;4953464;28;20054;-62
2023/08/19 04:37:02;;;;;;;4.35;2.15;;;23.20;99.90;;;;;;4971573;28;20030;-62
2023/08/19 04:39:28;;;;;;;7.57;1.92;;;23.30;99.90;;;;;;4991576;28;20036;-61
2023/08/19 04:41:53;;;;;;;3.63;2.08;;;23.30;99.90;;;;;;4991953;28;20389;-62
2023/08/19 04:44:19;;;;;;;4.90;2.13;;;23.20;99.90;;;;;;4982607;28;20042;-62
2023/08/19 04:46:45;;;;;;;4.25;2.58;;;23.30;99.90;;;;;;4973031;28;20565;-62
2023/08/19 04:49:11;;;;;;;5.50;2.13;;;23.20;99.90;;;;;;4992041;28;20046;-62
2023/08/19 04:51:37;;;;;;;3.58;1.90;;;23.00;99.90;;;;;;4977620;28;20034;-62
2023/08/19 04:54:03;;;;;;;5.00;2.35;;;22.90;99.90;;;;;;4991629;28;20506;-62
2023/08/19 04:56:30;;;;;;;3.58;2.08;;;22.80;99.90;;;;;;4991739;28;20030;-62
2023/08/19 04:58:56;;;;;;;7.22;2.13;;;22.70;99.90;;;;;;4991834;28;20041;-62
2023/08/19 05:01:22;;;;;;;6.80;2.42;;;22.80;99.90;;;;;;4991555;28;20041;-62
2023/08/19 05:03:48;;;;;;;3.88;2.00;;;22.60;99.90;;;;;;4991360;28;20042;-62
2023/08/19 05:06:14;;;;;;;4.45;1.85;;;22.60;99.90;;;;;;4990907;28;20469;-65
2023/08/19 05:08:40;;;;;;;6.95;2.22;;;22.50;99.90;;;;;;4992291;28;20061;-64
2023/08/19 05:11:05;;;;;;;4.70;2.35;;;22.60;99.90;;;;;;4992204;28;20072;-65
2023/08/19 05:13:31;;;;;;;15.05;3.10;;;22.70;99.90;;;;;;4988360;28;20054;-64
2023/08/19 05:16:00;;;;;;;6.72;2.30;;;22.70;99.90;;;;;;4987200;28;20038;-65
2023/08/19 05:18:26;;;;;;;2.75;1.85;;;22.80;99.90;;;;;;4991746;28;20089;-64
2023/08/19 05:20:51;;;;;;;7.43;2.22;;;22.90;99.90;;;;;;4988413;28;20034;-64
2023/08/19 05:23:17;;;;;;;7.60;2.50;;;22.90;99.90;;;;;;4984132;28;20068;-65
2023/08/19 05:25:43;;;;;;;4.35;2.22;;;22.90;99.90;;;;;;4990662;28;20045;-64
2023/08/19 05:28:10;;;;;;;4.53;2.13;;;22.80;99.90;;;;;;4989116;28;20027;-64
2023/08/19 05:30:36;;;;;;;6.90;2.47;;;22.90;99.90;;;;;;4985279;28;20034;-65
2023/08/19 05:33:01;;;;;;;3.83;2.10;;;23.00;99.90;;;;;;4990686;28;20038;-65
2023/08/19 05:35:27;;;;;;;5.85;2.85;;;23.00;99.90;;;;;;4991071;28;20030;-64
2023/08/19 05:37:53;;;;;;;7.95;2.63;;;23.00;99.90;;;;;;4991444;28;20442;-65
2023/08/19 05:40:19;;;;;;;5.43;2.47;;;23.10;99.90;;;;;;4991198;28;20444;-64
2023/08/19 05:42:45;;;;;;;6.95;2.72;;;23.10;99.90;;;;;;4990303;28;20030;-64
2023/08/19 05:45:10;;;;;;;4.82;2.33;;;23.20;99.90;;;;;;4967686;28;20161;-64
2023/08/19 05:47:37;;;;;;;5.40;1.88;;;23.20;99.90;;;;;;4991603;28;20059;-64
2023/08/19 05:50:05;;;;;;;6.70;3.42;;;23.20;99.90;;;;;;4991152;28;20030;-64
2023/08/19 05:52:31;;;;;;;9.45;2.78;;;23.30;99.90;;;;;;4989404;28;20037;-64
2023/08/19 05:54:57;;;;;;;5.43;2.63;;;23.30;99.90;;;;;;4984089;28;20034;-65
2023/08/19 05:57:23;;;;;;;3.83;2.17;;;23.40;99.90;;;;;;4990766;28;20026;-65
2023/08/19 05:59:49;;;;;;;7.75;2.80;;;23.50;99.90;;;;;;4990446;28;20375;-65
2023/08/19 06:02:15;;;;;;;4.95;2.70;;;23.50;99.90;;;;;;4976969;28;20037;-63
2023/08/19 06:04:40;;;;;;;5.95;2.75;;;23.50;99.90;;;;;;4989617;28;20061;-61
2023/08/19 06:07:06;;;;;;;6.70;2.88;;;23.60;99.90;;;;;;4990780;28;20031;-61
2023/08/19 06:09:32;;;;;;;5.20;2.78;;;23.40;99.90;;;;;;4990950;28;20125;-61
2023/08/19 06:11:58;;;;;;;7.13;3.33;;;23.50;99.90;;;;;;4988650;28;20113;-64
2023/08/19 06:14:23;;;;;;;5.15;2.88;;;23.60;99.90;;;;;;4973931;28;20089;-63
2023/08/19 06:16:49;;;;;;;9.15;3.05;;;23.60;99.90;;;;;;4990458;28;20510;-63
2023/08/19 06:19:15;;;;;;;5.03;2.70;;;23.70;99.90;;;;;;4990836;28;20054;-63
2023/08/19 06:21:41;;;;;;;3.35;1.95;;;23.80;99.90;;;;;;4990999;28;20093;-63
2023/08/19 06:24:07;;;;;;;5.03;2.58;;;23.90;99.90;;;;;;4989318;28;20375;-65
2023/08/19 06:26:33;;;;;;;5.50;2.42;;;24.10;99.90;;;;;;4991041;28;20030;-65
2023/08/19 06:28:59;;;;;;;5.22;2.53;;;24.20;99.90;;;;;;4990127;28;20118;-66
2023/08/19 06:31:25;;;;;;;6.47;2.40;;;24.20;99.90;;;;;;4990726;28;20062;-66
2023/08/19 06:33:53;;;;;;;4.18;2.13;;;24.10;99.90;;;;;;4989411;28;20052;-67
2023/08/19 06:36:25;;;;;;;3.45;2.10;;;24.20;99.90;;;;;;4982870;28;20390;-67
2023/08/19 06:39:07;;;;;;;6.78;2.25;;;24.30;99.90;;;;;;4990356;28;20041;-65
2023/08/19 06:41:41;;;;;;;3.58;2.20;;;24.50;99.90;;;;;;4967871;28;20394;-66
2023/08/19 06:44:08;;;;;;;5.05;2.38;;;24.60;99.90;;;;;;4985047;28;20035;-67
2023/08/19 06:46:35;;;;;;;5.03;2.50;;;24.50;99.90;;;;;;4987496;28;20036;-66
2023/08/19 06:49:01;;;;;;;4.85;2.17;;;24.60;99.90;;;;;;4974259;28;20034;-67
2023/08/19 06:51:29;;;;;;;4.32;2.25;;;24.70;99.90;;;;;;4975723;28;20041;-68
2023/08/19 06:53:55;;;;;;;4.47;2.15;;;24.70;99.90;;;;;;4956377;28;20034;-69
2023/08/19 06:56:33;;;;;;;4.88;2.22;;;24.70;99.90;;;;;;4965131;28;20066;-67
2023/08/19 06:59:12;;;;;;;6.95;2.33;;;24.70;99.90;;;;;;4972812;28;20117;-61
2023/08/19 07:01:43;;;;;;;4.03;2.08;;;24.80;99.90;;;;;;4979974;28;20052;-61
2023/08/19 07:04:10;;;;;;;6.07;2.55;;;24.80;99.90;;;;;;4989072;28;20046;-62
2023/08/19 07:06:37;;;;;;;6.78;2.35;;;25.00;99.90;;;;;;4985680;28;20441;-61
2023/08/19 07:09:08;;;;;;;4.68;2.25;;;25.00;99.90;;;;;;4978827;28;20027;-61
2023/08/19 07:11:34;;;;;;;6.07;2.75;;;25.20;99.90;;;;;;4973600;28;20414;-60
2023/08/19 07:14:00;;;;;;;6.90;2.55;;;25.30;99.90;;;;;;4987255;28;20504;-60
2023/08/19 07:16:29;;;;;;;4.10;2.20;;;25.40;99.90;;;;;;4990410;28;20066;-60
2023/08/19 07:18:56;;;;;;;2.58;1.60;;;25.40;99.90;;;;;;4972756;28;20027;-61
2023/08/19 07:21:24;;;;;;;3.67;1.70;;;25.50;99.90;;;;;;4980925;28;20035;-61
2023/08/19 07:23:57;;;;;;;3.22;1.63;;;25.60;99.90;;;;;;4967400;28;20039;-67
2023/08/19 07:26:26;;;;;;;4.88;2.10;;;25.80;99.90;;;;;;4968202;28;20821;-66
2023/08/19 07:28:52;;;;;;;6.15;1.90;;;26.00;99.90;;;;;;4990120;28;20100;-66
2023/08/19 07:31:23;;;;;;;4.10;1.70;;;26.30;99.90;;;;;;5004849;23;20061;-63
2023/08/19 07:33:50;;;;;;;2.40;1.45;;;26.40;99.90;;;;;;4992983;28;20493;-64
2023/08/19 07:36:16;;;;;;;3.33;1.48;;;26.50;99.90;;;;;;4992966;28;20038;-64
2023/08/19 07:38:42;;;;;;;2.55;1.10;;;26.60;99.90;;;;;;4993467;28;20037;-63
2023/08/19 07:41:08;;;;;;;3.17;1.60;;;26.60;99.90;;;;;;4977820;28;20031;-64
2023/08/19 07:43:34;;;;;;;3.63;1.50;;;26.70;99.90;;;;;;4976169;28;20483;-63
2023/08/19 07:46:00;;;;;;;2.72;1.42;;;26.70;99.90;;;;;;4978197;28;20464;-63
2023/08/19 07:48:26;;;;;;;7.07;3.92;;;26.80;99.90;;;;;;4973968;28;20109;-63
2023/08/19 07:50:51;;;;;;;4.95;1.70;;;26.90;99.90;;;;;;4973927;28;20043;-63
2023/08/19 07:53:17;;;;;;;7.80;2.63;;;27.00;99.90;;;;;;4973118;28;20086;-63
2023/08/19 07:55:43;;;;;;;3.00;1.38;;;27.10;99.90;;;;;;4972287;28;20037;-62
2023/08/19 07:58:09;;;;;;;3.40;1.15;;;27.20;99.90;;;;;;4973795;28;20404;-63
2023/08/19 08:00:35;;;;;;;3.45;1.50;;;27.30;99.90;;;;;;4970960;28;20027;-62
2023/08/19 08:03:01;;;;;;;5.25;1.67;;;27.30;99.90;;;;;;4972040;28;20406;-63
2023/08/19 08:05:27;;;;;;;4.80;1.63;;;27.40;99.90;;;;;;4973998;28;20027;-63
2023/08/19 08:07:53;;;;;;;5.57;1.75;;;27.50;99.90;;;;;;4973238;28;20109;-63
2023/08/19 08:10:19;;;;;;;3.17;1.30;;;27.70;99.90;;;;;;4973574;28;20114;-63
2023/08/19 08:12:44;;;;;;;3.15;1.35;;;27.70;99.90;;;;;;4971722;28;20066;-63
2023/08/19 08:15:10;;;;;;;4.00;1.98;;;27.70;99.90;;;;;;4980395;28;20027;-63
2023/08/19 08:17:36;;;;;;;3.33;1.23;;;27.70;99.90;;;;;;4973352;28;20042;-63
2023/08/19 08:20:02;;;;;;;4.75;1.48;;;27.70;99.90;;;;;;4971553;28;20026;-63
2023/08/19 08:22:28;;;;;;;2.92;1.30;;;27.70;99.90;;;;;;4972769;28;20093;-63
2023/08/19 08:24:56;;;;;;;2.30;1.25;;;27.80;99.90;;;;;;4957446;28;20479;-63
2023/08/19 08:27:21;;;;;;;2.88;1.60;;;27.90;99.90;;;;;;4964347;28;20057;-63
2023/08/19 08:29:47;;;;;;;2.28;1.50;;;28.00;99.90;;;;;;4969752;28;20035;-63
2023/08/19 08:32:13;;;;;;;2.80;1.70;;;28.20;99.90;;;;;;4965380;28;20377;-63
2023/08/19 08:34:38;;;;;;;2.22;1.60;;;28.30;99.90;;;;;;4971682;28;20050;-63
2023/08/19 08:37:04;;;;;;;2.45;1.23;;;28.30;99.90;;;;;;4973288;28;20030;-63
2023/08/19 08:39:30;;;;;;;4.55;1.63;;;28.30;99.90;;;;;;4972291;28;20035;-63
2023/08/19 08:41:56;;;;;;;2.40;1.50;;;28.60;99.90;;;;;;4971968;28;20085;-62
2023/08/19 08:44:26;;;;;;;3.50;1.90;;;28.90;99.90;;;;;;4967069;28;20405;-67
2023/08/19 08:46:58;;;;;;;3.55;1.98;;;29.10;99.90;;;;;;4969940;28;20069;-62
2023/08/19 08:49:27;;;;;;;3.92;1.67;;;29.30;99.90;;;;;;4958504;28;20323;-63
2023/08/19 08:51:54;;;;;;;3.30;2.00;;;29.20;99.90;;;;;;4971664;28;20038;-64
2023/08/19 08:54:22;;;;;;;5.00;2.10;;;29.20;99.90;;;;;;4971876;28;20479;-62
2023/08/19 08:56:48;;;;;;;2.72;1.63;;;29.20;99.90;;;;;;4971972;28;20054;-63
2023/08/19 08:59:14;;;;;;;3.53;1.52;;;29.40;99.90;;;;;;4972146;28;20029;-62
2023/08/19 09:01:44;;;;;;;2.90;1.80;;;29.40;99.90;;;;;;4971755;28;20106;-62
2023/08/19 09:04:12;;;;;;;3.90;1.33;;;29.60;99.90;;;;;;4970383;28;20499;-62
2023/08/19 09:06:42;;;;;;;4.90;1.50;;;29.70;99.90;;;;;;4969969;28;20126;-61
2023/08/19 09:09:12;;;;;;;3.80;1.92;;;30.10;99.90;;;;;;4971453;28;20498;-62
2023/08/19 09:11:47;;;;;;;4.65;1.88;;;30.10;98.50;;;;;;4987118;28;20045;-62
2023/08/19 09:14:29;;;;;;;3.15;1.90;;;30.00;98.80;;;;;;4980254;28;20080;-62
2023/08/19 09:16:55;;;;;;;4.50;1.83;;;30.10;99.10;;;;;;4994311;28;20031;-62
2023/08/19 09:19:20;;;;;;;4.70;1.77;;;30.20;99.10;;;;;;4971226;28;20037;-62
2023/08/19 09:21:46;;;;;;;6.85;2.65;;;30.00;97.90;;;;;;4970397;28;20038;-63
2023/08/19 09:24:16;;;;;;;3.60;2.10;;;30.30;98.20;;;;;;4971485;28;20723;-62
2023/08/19 09:26:45;;;;;;;2.80;1.85;;;30.40;98.80;;;;;;4986239;28;20109;-63
2023/08/19 09:29:12;;;;;;;4.30;2.20;;;30.60;97.60;;;;;;4971993;28;20042;-62
2023/08/19 09:31:40;;;;;;;3.15;1.92;;;30.50;97.30;;;;;;4970687;28;20027;-62
2023/08/19 09:34:06;;;;;;;4.80;2.33;;;30.20;98.20;;;;;;4971173;28;20039;-63
2023/08/19 09:36:32;;;;;;;5.43;1.80;;;30.30;98.00;;;;;;4969467;28;20042;-63
2023/08/19 09:38:58;;;;;;;4.63;1.98;;;30.40;98.70;;;;;;4972027;28;20103;-61
2023/08/19 09:41:28;;;;;;;4.53;1.80;;;30.40;98.70;;;;;;4971447;28;20085;-62
2023/08/19 09:43:56;;;;;;;4.30;2.55;;;30.30;98.30;;;;;;4969174;28;20054;-62
2023/08/19 09:46:31;;;;;;;3.60;1.98;;;30.40;98.50;;;;;;4970565;28;20034;-63
2023/08/19 09:48:58;;;;;;;3.33;1.90;;;30.40;99.60;;;;;;4971870;28;20085;-62
2023/08/19 09:51:26;;;;;;;5.13;2.15;;;30.50;99.20;;;;;;4970184;28;20064;-60
2023/08/19 09:53:53;;;;;;;3.40;1.90;;;30.70;99.60;;;;;;4970762;28;20089;-61
2023/08/19 09:56:29;;;;;;;6.78;3.03;;;30.70;98.90;;;;;;4970228;28;20034;-61
2023/08/19 09:58:57;;;;;;;3.30;2.10;;;30.60;99.50;;;;;;4970313;28;20047;-61
2023/08/19 10:01:25;;;;;;;4.53;1.70;;;30.60;99.90;;;;;;4969373;28;20034;-62
2023/08/19 10:03:51;;;;;;;4.00;2.17;;;31.00;99.80;;;;;;4969163;28;20034;-62
2023/08/19 10:06:24;;;;;;;5.68;2.40;;;31.10;98.10;;;;;;4969757;28;20030;-63
2023/08/19 10:09:04;;;;;;;4.57;2.80;;;30.70;99.70;;;;;;4971561;28;20042;-62
2023/08/19 10:11:31;;;;;;;3.70;1.80;;;30.70;99.50;;;;;;4969443;28;20118;-62
2023/08/19 10:14:03;;;;;;;4.55;1.92;;;30.80;99.50;;;;;;4975478;28;20049;-62
2023/08/19 10:16:32;;;;;;;3.05;1.65;;;30.90;99.40;;;;;;4970932;28;20033;-62
2023/08/19 10:18:59;;;;;;;3.15;1.77;;;30.90;99.70;;;;;;4971610;28;20077;-63
2023/08/19 10:21:27;;;;;;;4.50;2.15;;;31.00;99.30;;;;;;4971221;28;20031;-63
2023/08/19 10:23:53;;;;;;;8.82;2.65;;;30.60;99.90;;;;;;4968961;28;20122;-62
2023/08/19 10:26:19;;;;;;;3.75;2.05;;;30.70;99.90;;;;;;4970038;28;20034;-63
2023/08/19 10:29:06;;;;;;;4.57;2.45;;;30.90;99.20;;;;;;4969892;28;20038;-63
2023/08/19 10:31:32;;;;;;;4.78;1.92;;;31.00;99.00;;;;;;4970874;28;20039;-63
2023/08/19 10:33:58;;;;;;;3.88;2.40;;;30.60;99.90;;;;;;4968907;28;20479;-63
2023/08/19 10:36:30;;;;;;;2.67;1.70;;;30.70;99.90;;;;;;4971281;28;20506;-63
2023/08/19 10:39:00;;;;;;;5.72;2.75;;;30.80;99.90;;;;;;4971295;28;20114;-63
2023/08/19 10:41:36;;;;;;;5.72;1.90;;;30.60;99.90;;;;;;4969782;28;20503;-63
2023/08/19 10:44:13;;;;;;;12.07;2.47;;;30.60;99.90;;;;;;4972867;28;20058;-62
2023/08/19 10:46:41;;;;;;;6.43;2.50;;;30.50;99.90;;;;;;4968270;28;20093;-62
2023/08/19 10:49:33;;;;;;;4.22;2.03;;;30.40;99.90;;;;;;4969772;28;20027;-62
2023/08/19 10:52:00;;;;;;;5.82;2.25;;;30.40;99.90;;;;;;4969173;28;20114;-63
2023/08/19 10:54:43;;;;;;;5.95;1.65;;;30.30;99.90;;;;;;4969910;28;20027;-62
2023/08/19 10:57:26;;;;;;;3.92;2.13;;;30.40;99.90;;;;;;4970222;28;20074;-61
2023/08/19 10:59:57;;;;;;;5.45;2.63;;;30.50;99.90;;;;;;4973489;28;20059;-62
2023/08/19 11:02:28;;;;;;;3.78;2.20;;;30.90;99.90;;;;;;4972727;28;20102;-62
2023/08/19 11:04:54;;;;;;;5.88;2.22;;;31.00;99.00;;;;;;4974991;28;20049;-62
2023/08/19 11:07:21;;;;;;;3.75;1.90;;;31.10;99.10;;;;;;4973188;28;20051;-61
2023/08/19 11:09:52;;;;;;;4.18;2.50;;;31.40;98.50;;;;;;4973620;28;20125;-61
2023/08/19 11:12:22;;;;;;;6.13;2.58;;;31.20;98.80;;;;;;4971791;28;20073;-62
2023/08/19 11:14:51;;;;;;;6.53;2.55;;;31.30;99.20;;;;;;4988785;28;20026;-66
2023/08/19 11:17:18;;;;;;;5.80;1.90;;;31.40;98.80;;;;;;4976298;28;20047;-62
2023/08/19 11:19:44;;;;;;;3.40;2.17;;;31.60;98.20;;;;;;4970408;28;20030;-62
2023/08/19 11:22:16;;;;;;;6.07;2.83;;;31.70;97.90;;;;;;4973546;28;20031;-63
2023/08/19 11:24:42;;;;;;;5.50;2.80;;;32.20;98.00;;;;;;4972286;28;20089;-63
2023/08/19 11:27:08;;;;;;;3.55;2.35;;;31.90;98.80;;;;;;4972486;28;20027;-62
2023/08/19 11:29:38;;;;;;;3.97;2.47;;;31.70;99.20;;;;;;4971013;28;20023;-63
2023/08/19 11:32:05;;;;;;;3.63;1.63;;;32.20;99.40;;;;;;4973356;28;20033;-63
2023/08/19 11:34:32;;;;;;;6.90;2.53;;;32.20;98.70;;;;;;4971910;28;20549;-63
2023/08/19 11:36:58;;;;;;;3.70;1.90;;;32.50;96.90;;;;;;4971186;28;20027;-62
2023/08/19 11:39:30;;;;;;;4.43;2.30;;;32.20;97.50;;;;;;4970176;28;20030;-63
2023/08/19 11:41:56;;;;;;;5.25;2.63;;;32.00;97.40;;;;;;4974254;28;20117;-63
2023/08/19 11:44:22;;;;;;;4.85;2.28;;;31.90;98.80;;;;;;4971207;28;20134;-62
2023/08/19 11:46:57;;;;;;;3.67;2.13;;;31.90;97.10;;;;;;4972332;28;20042;-62
2023/08/19 11:49:27;;;;;;;7.05;2.63;;;32.60;97.20;;;;;;4973745;28;20045;-62
2023/08/19 11:51:53;;;;;;;7.13;2.20;;;33.00;96.30;;;;;;4973088;28;20432;-62
2023/08/19 11:54:19;;;;;;;4.43;2.33;;;32.30;95.50;;;;;;4972973;28;20098;-62
2023/08/19 11:56:54;;;;;;;7.53;2.10;;;32.50;95.00;;;;;;4974095;28;20035;-63
2023/08/19 11:59:33;;;;;;;4.20;2.05;;;32.90;94.40;;;;;;4973551;28;20517;-63
2023/08/19 12:02:04;;;;;;;2.63;1.73;;;33.00;94.40;;;;;;4973921;28;20035;-63
2023/08/19 12:04:33;;;;;;;7.70;2.28;;;33.00;93.70;;;;;;4971905;28;20118;-63
2023/08/19 12:07:04;;;;;;;3.95;2.20;;;33.50;92.70;;;;;;4972714;28;20038;-63
2023/08/19 12:09:32;;;;;;;3.22;1.83;;;33.00;93.00;;;;;;4972431;28;20039;-63
2023/08/19 12:12:11;;;;;;;2.95;1.80;;;32.80;94.10;;;;;;4972539;28;20411;-63
2023/08/19 12:14:39;;;;;;;2.92;1.70;;;32.90;92.50;;;;;;4979308;28;20031;-63
2023/08/19 12:17:08;;;;;;;5.07;2.60;;;32.80;89.10;;;;;;4973737;28;20023;-63
2023/08/19 12:19:35;;;;;;;5.07;1.85;;;32.50;89.50;;;;;;4972044;28;20030;-63
2023/08/19 12:22:01;;;;;;;5.93;2.15;;;32.30;91.70;;;;;;4956404;28;20042;-63
2023/08/19 12:24:27;;;;;;;3.17;2.03;;;32.20;91.70;;;;;;4972572;28;20081;-62
2023/08/19 12:26:53;;;;;;;2.67;1.67;;;32.00;90.90;;;;;;4972452;28;20030;-62
2023/08/19 12:29:19;;;;;;;6.65;1.92;;;32.00;91.90;;;;;;4972195;28;20581;-63
2023/08/19 12:31:44;;;;;;;4.88;1.90;;;32.00;91.60;;;;;;4973018;28;20035;-63
2023/08/19 12:34:12;;;;;;;2.85;1.70;;;31.90;90.10;;;;;;4972089;28;20042;-63
2023/08/19 12:36:37;;;;;;;3.45;2.15;;;31.50;90.30;;;;;;4983467;28;20069;-61
2023/08/19 12:39:04;;;;;;;4.45;1.92;;;31.40;90.40;;;;;;4980694;28;20062;-63
2023/08/19 12:41:30;;;;;;;6.93;1.80;;;31.40;90.70;;;;;;4973360;28;20027;-63
2023/08/19 12:43:56;;;;;;;3.22;1.80;;;31.10;91.10;;;;;;4977289;28;20030;-63
2023/08/19 12:46:21;;;;;;;8.15;2.75;;;31.10;91.60;;;;;;4973005;28;20105;-63
2023/08/19 12:48:47;;;;;;;4.55;2.15;;;31.10;91.70;;;;;;4972901;28;20471;-62
2023/08/19 12:51:13;;;;;;;3.28;1.90;;;31.20;91.30;;;;;;4973249;28;20043;-62